createdAt,value
2019-05-21T00:00:08.023Z,689.20
2019-05-21T00:00:43.033Z,706.60
2019-05-21T00:01:18.354Z,691.20
2019-05-21T00:01:53.634Z,693.50
2019-05-21T00:02:28.914Z,690.10
2019-05-21T00:03:04.559Z,684.80
2019-05-21T00:03:40.125Z,666.00
2019-05-21T00:04:27.315Z,677.00
2019-05-21T00:04:50.807Z,671.00
2019-05-21T00:05:26.326Z,665.90
2019-05-21T00:06:01.603Z,667.20
2019-05-21T00:06:37.111Z,676.90
2019-05-21T00:07:12.597Z,673.80
2019-05-21T00:07:48.023Z,679.90
2019-05-21T00:08:23.488Z,679.10
2019-05-21T00:08:58.723Z,691.70
2019-05-21T00:09:34.010Z,691.30
2019-05-21T00:10:09.416Z,693.30
2019-05-21T00:10:44.986Z,686.70
2019-05-21T00:11:20.103Z,688.00
2019-05-21T00:11:55.386Z,698.40
2019-05-21T00:12:30.882Z,696.40
2019-05-21T00:13:06.069Z,706.10
2019-05-21T00:13:41.290Z,719.60
2019-05-21T00:14:16.810Z,734.20
2019-05-21T00:14:52.234Z,730.10
2019-05-21T00:15:27.556Z,721.50
2019-05-21T00:16:03.100Z,704.30
2019-05-21T00:16:38.173Z,705.60
2019-05-21T00:17:13.487Z,710.60
2019-05-21T00:17:48.580Z,719.80
2019-05-21T00:18:23.884Z,723.70
2019-05-21T00:18:59.162Z,715.70
2019-05-21T00:19:34.589Z,709.30
2019-05-21T00:20:09.860Z,711.60
2019-05-21T00:20:45.685Z,716.30
2019-05-21T00:21:21.063Z,712.00
2019-05-21T00:21:56.277Z,721.60
2019-05-21T00:22:31.391Z,765.50
2019-05-21T00:23:06.886Z,805.80
2019-05-21T00:23:42.329Z,869.20
2019-05-21T00:24:17.847Z,909.80
2019-05-21T00:24:53.428Z,923.00
2019-05-21T00:25:28.494Z,929.80
2019-05-21T00:26:04.178Z,930.30
2019-05-21T00:26:39.494Z,892.10
2019-05-21T00:27:14.887Z,851.40
2019-05-21T00:27:50.201Z,802.60
2019-05-21T00:28:25.491Z,816.80
2019-05-21T00:29:01.109Z,877.70
2019-05-21T00:29:36.400Z,911.30
2019-05-21T00:30:11.752Z,925.80
2019-05-21T00:30:47.119Z,857.60
2019-05-21T00:31:22.318Z,834.90
2019-05-21T00:31:57.697Z,808.60
2019-05-21T00:32:33.211Z,830.10
2019-05-21T00:33:08.781Z,805.50
2019-05-21T00:33:43.998Z,786.00
2019-05-21T00:34:19.300Z,799.80
2019-05-21T00:34:54.628Z,841.50
2019-05-21T00:35:29.947Z,827.30
2019-05-21T00:36:05.556Z,818.20
2019-05-21T00:36:40.752Z,779.60
2019-05-21T00:37:16.258Z,784.90
2019-05-21T00:37:51.537Z,868.40
2019-05-21T00:38:26.834Z,797.30
2019-05-21T00:39:02.122Z,591.20
2019-05-21T00:39:37.724Z,508.90
2019-05-21T00:40:13.305Z,554.80
2019-05-21T00:40:48.845Z,641.20
2019-05-21T00:41:23.841Z,672.30
2019-05-21T00:41:59.358Z,536.00
2019-05-21T00:42:34.537Z,474.20
2019-05-21T00:43:09.858Z,463.00
2019-05-21T00:43:45.236Z,458.30
2019-05-21T00:44:20.365Z,497.60
2019-05-21T00:44:55.980Z,536.90
2019-05-21T00:45:31.395Z,601.30
2019-05-21T00:46:07.004Z,693.80
2019-05-21T00:46:42.607Z,711.10
2019-05-21T00:47:18.110Z,669.60
2019-05-21T00:47:53.319Z,612.50
2019-05-21T00:48:28.446Z,598.90
2019-05-21T00:49:04.056Z,601.10
2019-05-21T00:49:39.739Z,580.00
2019-05-21T00:50:15.150Z,626.00
2019-05-21T00:50:50.837Z,544.50
2019-05-21T00:51:26.090Z,475.30
2019-05-21T00:52:08.236Z,460.80
2019-05-21T00:52:36.784Z,467.30
2019-05-21T00:53:12.059Z,466.40
2019-05-21T00:53:47.394Z,508.50
2019-05-21T00:54:22.878Z,568.90
2019-05-21T00:54:58.099Z,555.70
2019-05-21T00:55:33.671Z,562.90
2019-05-21T00:56:09.096Z,674.70
2019-05-21T00:56:44.508Z,700.40
2019-05-21T00:57:19.922Z,661.70
2019-05-21T00:57:55.444Z,614.70
2019-05-21T00:58:30.660Z,525.60
2019-05-21T00:59:06.027Z,436.60
2019-05-21T00:59:41.448Z,400.00
2019-05-21T01:00:16.800Z,383.30
2019-05-21T01:00:52.065Z,366.30
2019-05-21T01:01:27.479Z,359.00
2019-05-21T01:02:03.117Z,351.50
2019-05-21T01:02:38.401Z,342.90
2019-05-21T01:03:13.915Z,335.30
2019-05-21T01:03:49.107Z,355.00
2019-05-21T01:04:24.741Z,364.80
2019-05-21T01:05:01.317Z,340.90
2019-05-21T01:05:35.429Z,343.60
2019-05-21T01:06:10.501Z,328.70
2019-05-21T01:06:46.213Z,351.70
2019-05-21T01:07:21.657Z,372.30
2019-05-21T01:07:56.870Z,372.30
2019-05-21T01:08:32.353Z,347.50
2019-05-21T01:09:07.782Z,349.80
2019-05-21T01:09:43.107Z,353.50
2019-05-21T01:10:18.276Z,358.40
2019-05-21T01:10:53.654Z,379.70
2019-05-21T01:11:28.980Z,380.80
2019-05-21T01:12:04.266Z,357.90
2019-05-21T01:12:39.928Z,370.90
2019-05-21T01:13:15.305Z,376.00
2019-05-21T01:13:50.633Z,379.50
2019-05-21T01:14:25.906Z,376.50
2019-05-21T01:15:01.515Z,378.30
2019-05-21T01:15:37.095Z,375.00
2019-05-21T01:16:12.413Z,375.40
2019-05-21T01:16:47.900Z,380.50
2019-05-21T01:17:23.303Z,410.40
2019-05-21T01:17:58.517Z,417.00
2019-05-21T01:18:33.944Z,410.20
2019-05-21T01:19:09.440Z,418.50
2019-05-21T01:19:44.749Z,427.70
2019-05-21T01:20:20.106Z,463.80
2019-05-21T01:20:55.388Z,482.20
2019-05-21T01:21:30.982Z,469.40
2019-05-21T01:22:06.275Z,483.80
2019-05-21T01:22:41.567Z,507.30
2019-05-21T01:23:17.124Z,526.60
2019-05-21T01:23:52.734Z,552.70
2019-05-21T01:24:28.353Z,591.90
2019-05-21T01:25:04.158Z,612.40
2019-05-21T01:25:39.369Z,632.60
2019-05-21T01:26:15.057Z,641.40
2019-05-21T01:26:50.579Z,650.90
2019-05-21T01:27:25.872Z,673.20
2019-05-21T01:28:01.103Z,705.60
2019-05-21T01:28:36.827Z,708.50
2019-05-21T01:29:12.058Z,720.40
2019-05-21T01:29:47.154Z,772.90
2019-05-21T01:30:22.770Z,822.10
2019-05-21T01:30:58.071Z,851.50
2019-05-21T01:31:33.373Z,892.10
2019-05-21T01:32:08.679Z,888.90
2019-05-21T01:32:43.898Z,868.20
2019-05-21T01:33:19.117Z,822.20
2019-05-21T01:33:54.256Z,867.80
2019-05-21T01:34:29.434Z,871.60
2019-05-21T01:35:16.748Z,789.90
2019-05-21T01:35:39.916Z,827.90
2019-05-21T01:36:15.132Z,898.80
2019-05-21T01:36:50.549Z,893.80
2019-05-21T01:37:26.216Z,858.90
2019-05-21T01:38:01.319Z,866.60
2019-05-21T01:38:37.107Z,873.90
2019-05-21T01:39:12.346Z,814.90
2019-05-21T01:39:47.635Z,680.20
2019-05-21T01:40:22.848Z,592.20
2019-05-21T01:40:58.155Z,573.60
2019-05-21T01:41:33.573Z,583.50
2019-05-21T01:42:08.882Z,637.20
2019-05-21T01:42:44.098Z,693.30
2019-05-21T01:43:19.299Z,748.40
2019-05-21T01:43:54.628Z,815.60
2019-05-21T01:44:30.145Z,751.20
2019-05-21T01:45:05.367Z,674.20
2019-05-21T01:45:40.949Z,696.00
2019-05-21T01:46:16.160Z,797.20
2019-05-21T01:46:51.544Z,851.80
2019-05-21T01:47:27.160Z,784.40
2019-05-21T01:48:02.435Z,767.20
2019-05-21T01:48:37.765Z,882.30
2019-05-21T01:49:13.072Z,912.40
2019-05-21T01:49:48.727Z,905.80
2019-05-21T01:50:24.213Z,905.30
2019-05-21T01:50:59.426Z,898.40
2019-05-21T01:51:35.131Z,896.50
2019-05-21T01:52:10.455Z,875.10
2019-05-21T01:52:45.950Z,785.50
2019-05-21T01:53:21.468Z,653.50
2019-05-21T01:53:56.760Z,602.20
2019-05-21T01:54:32.307Z,554.10
2019-05-21T01:55:07.538Z,557.00
2019-05-21T01:55:42.841Z,596.80
2019-05-21T01:56:18.248Z,718.70
2019-05-21T01:56:53.567Z,864.50
2019-05-21T01:57:29.040Z,901.50
2019-05-21T01:58:04.365Z,922.40
2019-05-21T01:58:39.654Z,916.40
2019-05-21T01:59:15.080Z,897.40
2019-05-21T01:59:50.574Z,896.40
2019-05-21T02:00:26.135Z,909.90
2019-05-21T02:01:01.624Z,747.80
2019-05-21T02:01:36.827Z,523.80
2019-05-21T02:02:12.130Z,511.50
2019-05-21T02:02:47.242Z,507.50
2019-05-21T02:03:22.725Z,498.90
2019-05-21T02:03:58.040Z,489.10
2019-05-21T02:04:33.535Z,489.10
2019-05-21T02:05:08.970Z,487.50
2019-05-21T02:05:44.410Z,496.90
2019-05-21T02:06:19.629Z,505.50
2019-05-21T02:06:55.115Z,498.10
2019-05-21T02:07:30.986Z,491.30
2019-05-21T02:08:06.114Z,504.10
2019-05-21T02:08:41.844Z,480.00
2019-05-21T02:09:17.028Z,456.20
2019-05-21T02:09:52.442Z,486.10
2019-05-21T02:10:27.805Z,480.00
2019-05-21T02:11:03.495Z,471.70
2019-05-21T02:11:39.088Z,480.60
2019-05-21T02:12:14.508Z,481.20
2019-05-21T02:12:49.800Z,478.70
2019-05-21T02:13:24.923Z,467.50
2019-05-21T02:14:00.201Z,459.60
2019-05-21T02:14:35.529Z,466.50
2019-05-21T02:15:10.925Z,458.20
2019-05-21T02:15:46.240Z,454.00
2019-05-21T02:16:21.463Z,471.70
2019-05-21T02:16:56.972Z,499.00
2019-05-21T02:17:32.580Z,479.40
2019-05-21T02:18:07.889Z,458.40
2019-05-21T02:18:42.870Z,477.50
2019-05-21T02:19:18.370Z,489.10
2019-05-21T02:19:53.442Z,465.30
2019-05-21T02:20:28.788Z,459.70
2019-05-21T02:21:03.977Z,446.90
2019-05-21T02:21:39.531Z,459.80
2019-05-21T02:22:14.733Z,457.50
2019-05-21T02:22:49.937Z,455.90
2019-05-21T02:23:25.109Z,468.30
2019-05-21T02:24:00.412Z,449.90
2019-05-21T02:24:35.815Z,454.90
2019-05-21T02:25:11.251Z,458.30
2019-05-21T02:25:46.534Z,445.20
2019-05-21T02:26:21.650Z,427.70
2019-05-21T02:26:57.155Z,450.00
2019-05-21T02:27:32.702Z,461.30
2019-05-21T02:28:08.295Z,455.20
2019-05-21T02:28:43.610Z,455.60
2019-05-21T02:29:19.087Z,447.70
2019-05-21T02:29:54.509Z,444.60
2019-05-21T02:30:29.902Z,463.90
2019-05-21T02:31:05.036Z,465.60
2019-05-21T02:31:40.608Z,445.60
2019-05-21T02:32:15.985Z,443.50
2019-05-21T02:32:51.488Z,435.50
2019-05-21T02:33:26.714Z,423.90
2019-05-21T02:34:01.807Z,434.30
2019-05-21T02:34:37.057Z,456.70
2019-05-21T02:35:12.806Z,464.20
2019-05-21T02:35:54.360Z,457.50
2019-05-21T02:36:23.613Z,455.30
2019-05-21T02:36:58.888Z,445.80
2019-05-21T02:37:34.256Z,470.20
2019-05-21T02:38:09.643Z,479.10
2019-05-21T02:38:44.864Z,478.40
2019-05-21T02:39:19.956Z,458.80
2019-05-21T02:39:55.259Z,461.00
2019-05-21T02:40:30.645Z,465.10
2019-05-21T02:41:05.876Z,460.90
2019-05-21T02:41:41.085Z,469.20
2019-05-21T02:42:16.597Z,461.70
2019-05-21T02:42:52.032Z,466.90
2019-05-21T02:43:27.440Z,474.20
2019-05-21T02:44:02.947Z,475.50
2019-05-21T02:44:38.271Z,462.00
2019-05-21T02:45:13.960Z,467.60
2019-05-21T02:45:49.489Z,463.80
2019-05-21T02:46:25.195Z,466.40
2019-05-21T02:47:00.327Z,469.60
2019-05-21T02:47:35.916Z,468.90
2019-05-21T02:48:11.284Z,482.50
2019-05-21T02:48:46.585Z,473.80
2019-05-21T02:49:21.619Z,460.70
2019-05-21T02:49:57.013Z,464.20
2019-05-21T02:50:32.535Z,480.90
2019-05-21T02:51:08.139Z,490.00
2019-05-21T02:51:43.445Z,481.50
2019-05-21T02:52:18.542Z,468.40
2019-05-21T02:52:53.882Z,481.30
2019-05-21T02:53:33.499Z,490.50
2019-05-21T02:54:04.233Z,487.20
2019-05-21T02:54:41.561Z,477.40
2019-05-21T02:55:14.773Z,467.40
2019-05-21T02:55:50.368Z,471.00
2019-05-21T02:56:25.954Z,478.90
2019-05-21T02:57:01.478Z,500.40
2019-05-21T02:57:36.783Z,502.20
2019-05-21T02:58:11.967Z,493.00
2019-05-21T02:58:47.527Z,469.50
2019-05-21T02:59:23.006Z,472.50
2019-05-21T02:59:58.424Z,481.00
2019-05-21T03:00:37.912Z,483.80
2019-05-21T03:01:08.957Z,479.90
2019-05-21T03:01:44.239Z,483.20
2019-05-21T03:02:19.468Z,502.30
2019-05-21T03:02:55.053Z,504.80
2019-05-21T03:03:30.474Z,499.70
2019-05-21T03:04:05.895Z,491.50
2019-05-21T03:04:41.423Z,475.60
2019-05-21T03:05:16.704Z,459.00
2019-05-21T03:05:52.045Z,468.10
2019-05-21T03:06:27.533Z,464.70
2019-05-21T03:07:02.879Z,478.40
2019-05-21T03:07:38.389Z,477.40
2019-05-21T03:08:13.789Z,467.80
2019-05-21T03:08:49.078Z,447.90
2019-05-21T03:09:24.413Z,446.20
2019-05-21T03:09:59.720Z,461.00
2019-05-21T03:10:34.835Z,462.80
2019-05-21T03:11:10.325Z,457.10
2019-05-21T03:11:45.730Z,469.20
2019-05-21T03:12:20.920Z,450.70
2019-05-21T03:12:56.331Z,447.20
2019-05-21T03:13:31.726Z,463.10
2019-05-21T03:14:07.057Z,459.70
2019-05-21T03:14:42.281Z,456.40
2019-05-21T03:15:17.489Z,453.40
2019-05-21T03:15:52.787Z,477.90
2019-05-21T03:16:28.219Z,482.70
2019-05-21T03:17:03.507Z,449.30
2019-05-21T03:17:38.823Z,454.80
2019-05-21T03:18:14.012Z,482.40
2019-05-21T03:18:49.824Z,487.50
2019-05-21T03:19:25.310Z,475.10
2019-05-21T03:20:00.947Z,474.80
2019-05-21T03:20:36.845Z,491.20
2019-05-21T03:21:12.376Z,472.80
2019-05-21T03:21:47.566Z,471.40
2019-05-21T03:22:22.805Z,469.80
2019-05-21T03:22:58.085Z,481.30
2019-05-21T03:23:33.417Z,482.90
2019-05-21T03:24:08.908Z,464.60
2019-05-21T03:24:44.218Z,481.70
2019-05-21T03:25:19.730Z,495.60
2019-05-21T03:25:55.448Z,486.40
2019-05-21T03:26:30.775Z,494.90
2019-05-21T03:27:06.170Z,494.40
2019-05-21T03:27:41.442Z,499.50
2019-05-21T03:28:17.117Z,472.70
2019-05-21T03:28:52.437Z,484.40
2019-05-21T03:29:28.018Z,483.50
2019-05-21T03:30:03.250Z,494.20
2019-05-21T03:30:38.450Z,496.40
2019-05-21T03:31:14.063Z,492.00
2019-05-21T03:31:49.368Z,476.80
2019-05-21T03:32:24.948Z,470.60
2019-05-21T03:33:00.309Z,474.00
2019-05-21T03:33:35.635Z,470.50
2019-05-21T03:34:11.265Z,455.80
2019-05-21T03:34:46.624Z,460.00
2019-05-21T03:35:21.653Z,450.20
2019-05-21T03:35:56.980Z,430.10
2019-05-21T03:36:34.097Z,436.20
2019-05-21T03:37:07.819Z,452.40
2019-05-21T03:37:43.311Z,440.40
2019-05-21T03:38:18.792Z,438.80
2019-05-21T03:38:53.978Z,433.30
2019-05-21T03:39:29.493Z,437.10
2019-05-21T03:40:05.089Z,441.60
2019-05-21T03:40:40.514Z,445.00
2019-05-21T03:41:15.612Z,449.30
2019-05-21T03:41:50.735Z,431.10
2019-05-21T03:42:25.956Z,425.80
2019-05-21T03:43:01.178Z,436.20
2019-05-21T03:43:36.291Z,455.00
2019-05-21T03:44:11.418Z,444.90
2019-05-21T03:44:59.142Z,419.40
2019-05-21T03:45:22.224Z,444.20
2019-05-21T03:45:57.524Z,461.80
2019-05-21T03:46:32.845Z,447.00
2019-05-21T03:47:08.033Z,440.00
2019-05-21T03:47:43.377Z,431.60
2019-05-21T03:48:18.679Z,425.10
2019-05-21T03:48:54.124Z,450.90
2019-05-21T03:49:29.409Z,426.60
2019-05-21T03:50:05.027Z,424.80
2019-05-21T03:50:40.329Z,421.20
2019-05-21T03:51:15.707Z,420.10
2019-05-21T03:51:50.808Z,455.00
2019-05-21T03:52:26.049Z,453.70
2019-05-21T03:53:01.360Z,440.70
2019-05-21T03:53:36.675Z,453.90
2019-05-21T03:54:12.079Z,476.00
2019-05-21T03:54:47.416Z,469.30
2019-05-21T03:55:23.115Z,455.90
2019-05-21T03:55:58.426Z,429.70
2019-05-21T03:56:33.710Z,432.50
2019-05-21T03:57:09.058Z,449.70
2019-05-21T03:57:44.134Z,449.60
2019-05-21T03:58:19.576Z,443.60
2019-05-21T03:58:55.053Z,422.00
2019-05-21T03:59:30.275Z,411.50
2019-05-21T04:00:05.674Z,420.70
2019-05-21T04:00:41.025Z,442.70
2019-05-21T04:01:16.611Z,431.70
2019-05-21T04:01:51.939Z,433.50
2019-05-21T04:02:27.386Z,425.10
2019-05-21T04:03:02.613Z,427.10
2019-05-21T04:03:37.703Z,443.40
2019-05-21T04:04:13.211Z,447.50
2019-05-21T04:04:48.629Z,425.10
2019-05-21T04:05:23.870Z,402.70
2019-05-21T04:05:59.167Z,406.20
2019-05-21T04:06:50.719Z,439.50
2019-05-21T04:07:10.159Z,455.00
2019-05-21T04:07:45.617Z,450.40
2019-05-21T04:08:20.711Z,434.90
2019-05-21T04:08:55.934Z,421.90
2019-05-21T04:09:31.427Z,416.40
2019-05-21T04:10:06.756Z,419.70
2019-05-21T04:10:41.947Z,407.50
2019-05-21T04:11:17.277Z,404.30
2019-05-21T04:11:53.282Z,409.30
2019-05-21T04:12:27.998Z,419.00
2019-05-21T04:13:03.188Z,412.70
2019-05-21T04:13:38.804Z,419.10
2019-05-21T04:14:13.998Z,410.80
2019-05-21T04:14:49.817Z,402.70
2019-05-21T04:15:25.098Z,398.20
2019-05-21T04:16:00.733Z,393.90
2019-05-21T04:16:36.225Z,426.70
2019-05-21T04:17:11.538Z,445.20
2019-05-21T04:17:46.947Z,427.00
2019-05-21T04:18:22.452Z,433.30
2019-05-21T04:18:58.150Z,438.60
2019-05-21T04:19:33.477Z,442.40
2019-05-21T04:20:08.857Z,431.10
2019-05-21T04:20:44.381Z,440.20
2019-05-21T04:21:20.079Z,443.80
2019-05-21T04:21:55.384Z,435.50
2019-05-21T04:22:30.699Z,417.90
2019-05-21T04:23:06.120Z,414.30
2019-05-21T04:23:41.413Z,428.00
2019-05-21T04:24:16.937Z,429.60
2019-05-21T04:24:52.342Z,432.30
2019-05-21T04:25:28.263Z,432.60
2019-05-21T04:26:03.657Z,439.30
2019-05-21T04:26:38.959Z,450.50
2019-05-21T04:27:14.188Z,444.60
2019-05-21T04:27:49.534Z,448.30
2019-05-21T04:28:25.026Z,451.90
2019-05-21T04:29:00.359Z,444.60
2019-05-21T04:29:35.679Z,428.70
2019-05-21T04:30:11.457Z,416.60
2019-05-21T04:30:46.315Z,437.60
2019-05-21T04:31:21.596Z,453.90
2019-05-21T04:31:56.740Z,439.00
2019-05-21T04:32:31.986Z,413.70
2019-05-21T04:33:07.166Z,403.10
2019-05-21T04:33:42.492Z,410.40
2019-05-21T04:34:17.479Z,421.20
2019-05-21T04:34:52.604Z,416.30
2019-05-21T04:35:27.906Z,405.90
2019-05-21T04:36:03.417Z,413.20
2019-05-21T04:36:38.794Z,416.10
2019-05-21T04:37:17.214Z,397.30
2019-05-21T04:37:49.529Z,377.20
2019-05-21T04:38:25.045Z,394.00
2019-05-21T04:39:00.234Z,400.40
2019-05-21T04:39:35.354Z,412.90
2019-05-21T04:40:10.754Z,400.30
2019-05-21T04:40:46.421Z,397.60
2019-05-21T04:41:21.907Z,396.80
2019-05-21T04:41:57.651Z,392.90
2019-05-21T04:42:32.950Z,411.90
2019-05-21T04:43:08.361Z,406.60
2019-05-21T04:43:43.659Z,393.80
2019-05-21T04:44:18.987Z,389.90
2019-05-21T04:44:54.378Z,395.70
2019-05-21T04:45:29.700Z,391.40
2019-05-21T04:46:04.924Z,400.80
2019-05-21T04:46:40.253Z,409.90
2019-05-21T04:47:15.662Z,395.10
2019-05-21T04:47:51.017Z,388.10
2019-05-21T04:48:26.204Z,386.10
2019-05-21T04:49:01.952Z,396.80
2019-05-21T04:49:37.243Z,396.90
2019-05-21T04:50:12.463Z,396.00
2019-05-21T04:50:47.956Z,377.90
2019-05-21T04:51:23.175Z,379.80
2019-05-21T04:51:58.458Z,396.00
2019-05-21T04:52:34.013Z,403.50
2019-05-21T04:53:09.595Z,393.90
2019-05-21T04:53:45.073Z,393.60
2019-05-21T04:54:20.162Z,397.70
2019-05-21T04:54:55.773Z,414.30
2019-05-21T04:55:30.957Z,406.20
2019-05-21T04:56:06.300Z,399.20
2019-05-21T04:56:41.581Z,389.10
2019-05-21T04:57:16.839Z,393.20
2019-05-21T04:57:52.134Z,408.10
2019-05-21T04:58:27.558Z,409.20
2019-05-21T04:59:02.650Z,424.10
2019-05-21T04:59:37.776Z,410.60
2019-05-21T05:00:13.190Z,388.10
2019-05-21T05:00:48.379Z,395.60
2019-05-21T05:01:23.613Z,404.70
2019-05-21T05:01:58.893Z,378.80
2019-05-21T05:02:34.210Z,370.60
2019-05-21T05:03:09.831Z,376.00
2019-05-21T05:03:45.049Z,389.70
2019-05-21T05:04:21.757Z,409.30
2019-05-21T05:04:55.755Z,403.90
2019-05-21T05:05:31.041Z,391.80
2019-05-21T05:06:06.172Z,416.50
2019-05-21T05:06:41.576Z,419.00
2019-05-21T05:07:27.599Z,419.30
2019-05-21T05:07:52.653Z,418.90
2019-05-21T05:08:27.918Z,396.00
2019-05-21T05:09:03.330Z,385.60
2019-05-21T05:09:38.635Z,403.30
2019-05-21T05:10:14.062Z,387.80
2019-05-21T05:10:49.486Z,391.40
2019-05-21T05:11:24.492Z,392.60
2019-05-21T05:11:59.787Z,380.00
2019-05-21T05:12:35.139Z,390.70
2019-05-21T05:13:10.724Z,398.20
2019-05-21T05:13:46.175Z,403.40
2019-05-21T05:14:21.548Z,410.80
2019-05-21T05:14:57.094Z,388.80
2019-05-21T05:15:32.376Z,381.10
2019-05-21T05:16:08.016Z,387.20
2019-05-21T05:16:43.401Z,392.80
2019-05-21T05:17:18.913Z,406.10
2019-05-21T05:17:54.344Z,409.50
2019-05-21T05:18:29.773Z,398.40
2019-05-21T05:19:05.278Z,386.60
2019-05-21T05:19:40.637Z,371.90
2019-05-21T05:20:15.922Z,372.60
2019-05-21T05:20:51.321Z,377.60
2019-05-21T05:21:26.617Z,391.10
2019-05-21T05:22:02.143Z,369.60
2019-05-21T05:22:37.520Z,388.30
2019-05-21T05:23:12.886Z,409.30
2019-05-21T05:23:48.374Z,393.30
2019-05-21T05:24:24.011Z,382.40
2019-05-21T05:24:59.391Z,374.70
2019-05-21T05:25:34.717Z,390.90
2019-05-21T05:26:10.019Z,389.20
2019-05-21T05:26:45.505Z,371.20
2019-05-21T05:27:20.703Z,391.40
2019-05-21T05:27:56.020Z,398.00
2019-05-21T05:28:31.451Z,397.50
2019-05-21T05:29:06.662Z,380.00
2019-05-21T05:29:41.982Z,377.10
2019-05-21T05:30:17.401Z,389.40
2019-05-21T05:30:52.794Z,384.50
2019-05-21T05:31:28.200Z,372.00
2019-05-21T05:32:03.579Z,392.00
2019-05-21T05:32:39.006Z,393.60
2019-05-21T05:33:14.103Z,372.10
2019-05-21T05:33:49.441Z,366.00
2019-05-21T05:34:25.010Z,370.80
2019-05-21T05:35:00.342Z,395.30
2019-05-21T05:35:35.819Z,396.20
2019-05-21T05:36:11.163Z,386.90
2019-05-21T05:36:46.464Z,395.10
2019-05-21T05:37:21.794Z,396.50
2019-05-21T05:37:57.349Z,392.50
2019-05-21T05:38:32.583Z,382.90
2019-05-21T05:39:08.229Z,380.40
2019-05-21T05:39:43.445Z,393.70
2019-05-21T05:40:18.631Z,394.70
2019-05-21T05:40:53.840Z,393.60
2019-05-21T05:41:29.128Z,391.10
2019-05-21T05:42:04.337Z,380.50
2019-05-21T05:42:40.053Z,383.40
2019-05-21T05:43:15.270Z,405.50
2019-05-21T05:43:50.403Z,410.20
2019-05-21T05:44:25.717Z,400.60
2019-05-21T05:45:00.901Z,402.00
2019-05-21T05:45:36.212Z,398.80
2019-05-21T05:46:11.800Z,396.60
2019-05-21T05:46:47.117Z,399.20
2019-05-21T05:47:22.424Z,387.30
2019-05-21T05:47:57.675Z,384.90
2019-05-21T05:48:32.986Z,381.60
2019-05-21T05:49:08.405Z,402.30
2019-05-21T05:49:43.598Z,406.00
2019-05-21T05:50:19.052Z,405.20
2019-05-21T05:50:54.209Z,393.30
2019-05-21T05:51:29.725Z,397.60
2019-05-21T05:52:05.269Z,395.70
2019-05-21T05:52:40.660Z,400.30
2019-05-21T05:53:15.950Z,393.90
2019-05-21T05:53:51.532Z,376.10
2019-05-21T05:54:26.916Z,385.80
2019-05-21T05:55:02.376Z,384.60
2019-05-21T05:55:37.887Z,398.70
2019-05-21T05:56:13.279Z,396.50
2019-05-21T05:56:48.503Z,386.80
2019-05-21T05:57:24.107Z,388.00
2019-05-21T05:57:59.437Z,382.90
2019-05-21T05:58:34.844Z,390.10
2019-05-21T05:59:13.377Z,385.60
2019-05-21T05:59:45.688Z,401.20
2019-05-21T06:00:21.279Z,395.40
2019-05-21T06:00:56.507Z,390.70
2019-05-21T06:01:31.805Z,388.20
2019-05-21T06:02:07.319Z,382.00
2019-05-21T06:02:42.494Z,389.10
2019-05-21T06:03:17.956Z,380.30
2019-05-21T06:03:53.421Z,378.60
2019-05-21T06:04:30.624Z,391.90
2019-05-21T06:05:03.916Z,388.70
2019-05-21T06:05:39.148Z,383.40
2019-05-21T06:06:14.529Z,372.80
2019-05-21T06:06:49.895Z,375.00
2019-05-21T06:07:25.399Z,361.70
2019-05-21T06:08:00.792Z,367.50
2019-05-21T06:08:35.947Z,391.50
2019-05-21T06:09:11.273Z,392.30
2019-05-21T06:09:46.566Z,385.00
2019-05-21T06:10:21.867Z,373.90
2019-05-21T06:10:57.262Z,375.40
2019-05-21T06:11:32.789Z,370.20
2019-05-21T06:12:08.474Z,385.10
2019-05-21T06:12:43.983Z,400.20
2019-05-21T06:13:19.387Z,387.30
2019-05-21T06:13:54.802Z,364.80
2019-05-21T06:14:30.678Z,367.70
2019-05-21T06:15:05.827Z,385.30
2019-05-21T06:15:41.234Z,397.90
2019-05-21T06:16:16.542Z,379.10
2019-05-21T06:16:52.042Z,381.90
2019-05-21T06:17:27.544Z,385.50
2019-05-21T06:18:02.943Z,392.10
2019-05-21T06:18:38.196Z,395.40
2019-05-21T06:19:13.394Z,384.90
2019-05-21T06:19:48.909Z,396.90
2019-05-21T06:20:24.397Z,411.60
2019-05-21T06:21:00.008Z,378.80
2019-05-21T06:21:35.402Z,349.90
2019-05-21T06:22:10.525Z,352.90
2019-05-21T06:22:45.900Z,371.50
2019-05-21T06:23:21.106Z,373.90
2019-05-21T06:23:56.535Z,379.80
2019-05-21T06:24:32.316Z,363.50
2019-05-21T06:25:07.963Z,351.60
2019-05-21T06:25:43.052Z,360.00
2019-05-21T06:26:18.491Z,367.80
2019-05-21T06:26:53.579Z,369.80
2019-05-21T06:27:29.506Z,366.90
2019-05-21T06:28:04.797Z,378.70
2019-05-21T06:28:40.047Z,379.80
2019-05-21T06:29:15.357Z,380.60
2019-05-21T06:29:50.580Z,385.80
2019-05-21T06:30:26.001Z,382.60
2019-05-21T06:31:01.253Z,358.20
2019-05-21T06:31:36.498Z,360.10
2019-05-21T06:32:11.933Z,369.10
2019-05-21T06:32:47.450Z,372.30
2019-05-21T06:33:22.588Z,367.00
2019-05-21T06:33:58.077Z,338.70
2019-05-21T06:34:33.506Z,334.00
2019-05-21T06:35:08.996Z,357.20
2019-05-21T06:35:44.937Z,366.50
2019-05-21T06:36:20.229Z,360.80
2019-05-21T06:36:55.656Z,363.90
2019-05-21T06:37:31.031Z,360.00
2019-05-21T06:38:17.282Z,359.50
2019-05-21T06:38:41.956Z,356.60
2019-05-21T06:39:17.269Z,361.20
2019-05-21T06:39:52.578Z,376.90
2019-05-21T06:40:27.701Z,390.00
2019-05-21T06:41:02.900Z,377.50
2019-05-21T06:41:38.232Z,377.90
2019-05-21T06:42:13.424Z,394.40
2019-05-21T06:42:48.936Z,384.00
2019-05-21T06:43:24.355Z,374.60
2019-05-21T06:43:59.664Z,363.30
2019-05-21T06:44:34.680Z,364.90
2019-05-21T06:45:10.196Z,378.70
2019-05-21T06:45:45.416Z,393.20
2019-05-21T06:46:20.824Z,374.60
2019-05-21T06:46:56.120Z,364.80
2019-05-21T06:47:31.383Z,376.10
2019-05-21T06:48:06.690Z,389.60
2019-05-21T06:48:41.923Z,378.80
2019-05-21T06:49:17.406Z,360.00
2019-05-21T06:49:52.413Z,371.40
2019-05-21T06:50:27.804Z,368.90
2019-05-21T06:51:03.233Z,352.20
2019-05-21T06:51:38.352Z,375.10
2019-05-21T06:52:13.639Z,363.10
2019-05-21T06:52:48.919Z,355.60
2019-05-21T06:53:24.487Z,387.00
2019-05-21T06:53:59.980Z,372.10
2019-05-21T06:54:35.389Z,354.50
2019-05-21T06:55:10.598Z,342.50
2019-05-21T06:55:45.922Z,342.30
2019-05-21T06:56:21.204Z,346.40
2019-05-21T06:56:56.930Z,350.50
2019-05-21T06:57:32.145Z,369.40
2019-05-21T06:58:07.466Z,357.60
2019-05-21T06:58:42.780Z,357.70
2019-05-21T06:59:17.894Z,364.90
2019-05-21T06:59:53.193Z,357.50
2019-05-21T07:00:28.612Z,365.10
2019-05-21T07:01:04.206Z,365.10
2019-05-21T07:01:39.831Z,366.00
2019-05-21T07:02:15.061Z,361.30
2019-05-21T07:02:50.480Z,347.10
2019-05-21T07:03:25.591Z,371.50
2019-05-21T07:04:00.997Z,374.20
2019-05-21T07:04:36.190Z,367.20
2019-05-21T07:05:11.505Z,374.00
2019-05-21T07:05:58.386Z,357.00
2019-05-21T07:06:22.048Z,375.90
2019-05-21T07:06:57.525Z,362.00
2019-05-21T07:07:32.855Z,338.70
2019-05-21T07:08:08.244Z,351.00
2019-05-21T07:08:43.683Z,351.60
2019-05-21T07:09:19.367Z,357.60
2019-05-21T07:09:54.665Z,369.20
2019-05-21T07:10:29.907Z,374.30
2019-05-21T07:11:05.175Z,371.40
2019-05-21T07:11:40.942Z,361.70
2019-05-21T07:12:16.131Z,358.30
2019-05-21T07:12:51.456Z,356.20
2019-05-21T07:13:26.675Z,367.10
2019-05-21T07:14:01.832Z,377.40
2019-05-21T07:14:37.214Z,350.30
2019-05-21T07:15:12.630Z,353.50
2019-05-21T07:15:47.708Z,360.90
2019-05-21T07:16:23.435Z,355.70
2019-05-21T07:16:59.029Z,348.60
2019-05-21T07:17:34.330Z,347.50
2019-05-21T07:18:09.719Z,363.20
2019-05-21T07:18:45.179Z,362.70
2019-05-21T07:19:20.468Z,364.90
2019-05-21T07:19:55.586Z,343.10
2019-05-21T07:20:30.962Z,341.30
2019-05-21T07:21:06.390Z,347.60